Terminal Aerodrome Forecast
Issued by NWS

Home | Current Version | Previous Version | Text Only | Print | Product List | Glossary On
Versions: 1 2 3 4 5 6 7 8 9 10 11 12 13 14 15 16 17 18
000
FTUS41 KCLE 011100
TAFFDY
TAF
KFDY 011137Z 0112/0212 20004KT P6SM SCT110
     FM012200 VRB03KT P6SM VCSH BKN050
     FM020100 06003KT P6SM SCT050 BKN200=

USA.gov is the U.S. government's official web portal to all federal, state and local government web resources and services.